createdAt,value
2023-03-25T00:00:40.341Z,99.90
2023-03-25T00:01:44.484Z,99.90
2023-03-25T00:02:49.611Z,99.90
2023-03-25T00:03:54.174Z,99.90
2023-03-25T00:05:04.330Z,99.90
2023-03-25T00:06:08.628Z,99.90
2023-03-25T00:07:14.598Z,99.90
2023-03-25T00:08:17.675Z,99.90
2023-03-25T00:09:21.666Z,99.90
2023-03-25T00:10:25.302Z,99.90
2023-03-25T00:11:29.181Z,99.90
2023-03-25T00:12:33.718Z,99.90
2023-03-25T00:13:42.274Z,99.90
2023-03-25T00:14:54.883Z,99.90
2023-03-25T00:15:59.470Z,99.90
2023-03-25T00:17:03.441Z,99.90
2023-03-25T00:18:09.343Z,99.90
2023-03-25T00:19:13.852Z,99.90
2023-03-25T00:20:16.977Z,99.90
2023-03-25T00:21:21.551Z,99.90
2023-03-25T00:22:26.115Z,99.90
2023-03-25T00:23:32.271Z,99.90
2023-03-25T00:24:35.152Z,99.90
2023-03-25T00:25:41.990Z,99.90
2023-03-25T00:26:45.011Z,99.90
2023-03-25T00:27:51.111Z,99.90
2023-03-25T00:28:54.330Z,99.90
2023-03-25T00:30:02.132Z,99.90
2023-03-25T00:31:07.646Z,99.90
2023-03-25T00:32:12.225Z,99.90
2023-03-25T00:33:18.263Z,99.90
2023-03-25T00:34:22.191Z,99.90
2023-03-25T00:35:29.191Z,99.90
2023-03-25T00:36:37.640Z,99.90
2023-03-25T00:37:43.861Z,99.90
2023-03-25T00:38:51.339Z,99.90
2023-03-25T00:39:54.903Z,99.90
2023-03-25T00:41:10.679Z,99.90
2023-03-25T00:42:18.086Z,99.90
2023-03-25T00:43:23.206Z,99.90
2023-03-25T00:44:27.802Z,99.90
2023-03-25T00:45:31.995Z,99.90
2023-03-25T00:46:37.212Z,99.90
2023-03-25T00:47:40.151Z,99.90
2023-03-25T00:48:44.549Z,99.90
2023-03-25T00:49:47.438Z,99.90
2023-03-25T00:50:51.340Z,99.90
2023-03-25T00:51:54.985Z,99.90
2023-03-25T00:53:03.833Z,99.90
2023-03-25T00:54:06.351Z,99.90
2023-03-25T00:55:11.800Z,99.90
2023-03-25T00:56:15.105Z,99.90
2023-03-25T00:57:22.406Z,99.90
2023-03-25T00:58:28.021Z,99.90
2023-03-25T00:59:33.953Z,99.90
2023-03-25T01:00:39.734Z,99.90
2023-03-25T01:01:44.047Z,99.90
2023-03-25T01:02:49.225Z,99.90
2023-03-25T01:03:58.117Z,99.90
2023-03-25T01:05:02.104Z,99.90
2023-03-25T01:06:10.303Z,99.90
2023-03-25T01:07:16.663Z,99.90
2023-03-25T01:08:25.776Z,99.90
2023-03-25T01:09:28.291Z,99.90
2023-03-25T01:10:31.908Z,99.90
2023-03-25T01:11:37.811Z,99.90
2023-03-25T01:12:41.453Z,99.90
2023-03-25T01:13:44.011Z,99.90
2023-03-25T01:14:50.828Z,99.90
2023-03-25T01:15:56.202Z,99.90
2023-03-25T01:17:01.217Z,99.90
2023-03-25T01:18:06.559Z,99.90
2023-03-25T01:19:13.281Z,99.90
2023-03-25T01:20:15.982Z,99.90
2023-03-25T01:21:19.755Z,99.90
2023-03-25T01:22:28.096Z,99.90
2023-03-25T01:23:33.642Z,99.90
2023-03-25T01:24:36.979Z,99.90
2023-03-25T01:25:41.491Z,99.90
2023-03-25T01:26:46.922Z,99.90
2023-03-25T01:27:52.938Z,99.90
2023-03-25T01:28:55.986Z,99.90
2023-03-25T01:29:59.782Z,99.90
2023-03-25T01:31:03.329Z,99.90
2023-03-25T01:32:09.343Z,99.90
2023-03-25T01:33:12.190Z,99.90
2023-03-25T01:34:17.212Z,99.90
2023-03-25T01:35:22.850Z,99.90
2023-03-25T01:36:29.793Z,99.90
2023-03-25T01:37:36.809Z,99.90
2023-03-25T01:38:42.725Z,99.90
2023-03-25T01:39:45.953Z,99.90
2023-03-25T01:40:51.867Z,99.90
2023-03-25T01:41:55.617Z,99.90
2023-03-25T01:42:58.494Z,99.90
2023-03-25T01:44:08.142Z,99.90
2023-03-25T01:45:20.578Z,99.90
2023-03-25T01:46:24.573Z,99.90
2023-03-25T01:47:28.178Z,99.90
2023-03-25T01:48:39.196Z,99.90
2023-03-25T01:49:45.379Z,99.90
2023-03-25T01:50:54.565Z,99.90
2023-03-25T01:52:02.863Z,99.90
2023-03-25T01:53:09.533Z,99.90
2023-03-25T01:54:18.168Z,99.90
2023-03-25T01:55:24.197Z,99.90
2023-03-25T01:56:32.174Z,99.90
2023-03-25T01:57:37.299Z,99.90
2023-03-25T01:58:44.937Z,99.90
2023-03-25T01:59:48.464Z,99.90
2023-03-25T02:00:55.066Z,99.90
2023-03-25T02:02:04.188Z,99.90
2023-03-25T02:03:13.395Z,99.90
2023-03-25T02:04:27.320Z,99.90
2023-03-25T02:05:41.352Z,99.90
2023-03-25T02:06:45.928Z,99.90
2023-03-25T02:07:51.253Z,99.90
2023-03-25T02:09:01.854Z,99.90
2023-03-25T02:10:09.953Z,99.90
2023-03-25T02:11:13.664Z,99.90
2023-03-25T02:12:18.279Z,99.90
2023-03-25T02:13:23.149Z,99.90
2023-03-25T02:14:32.943Z,99.90
2023-03-25T02:15:57.618Z,99.90
2023-03-25T02:17:10.242Z,99.90
2023-03-25T02:18:32.864Z,99.90
2023-03-25T02:20:31.407Z,99.90
2023-03-25T02:22:07.642Z,99.90
2023-03-25T02:23:50.065Z,99.90
2023-03-25T02:25:35.398Z,99.90
2023-03-25T02:27:15.126Z,99.90
2023-03-25T02:28:29.807Z,99.90
2023-03-25T02:30:07.116Z,99.90
2023-03-25T02:31:34.338Z,99.90
2023-03-25T02:33:10.488Z,99.90
2023-03-25T02:34:46.343Z,99.90
2023-03-25T02:36:18.785Z,99.90
2023-03-25T02:38:10.146Z,99.90
2023-03-25T02:39:32.088Z,99.90
2023-03-25T02:40:45.437Z,99.90
2023-03-25T02:41:57.268Z,99.90
2023-03-25T02:43:09.662Z,99.90
2023-03-25T02:44:18.657Z,99.90
2023-03-25T02:45:32.117Z,99.90
2023-03-25T02:46:36.500Z,99.90
2023-03-25T02:47:49.167Z,99.90
2023-03-25T02:49:00.585Z,99.90
2023-03-25T02:50:11.862Z,99.90
2023-03-25T02:51:27.669Z,99.90
2023-03-25T02:52:39.108Z,99.90
2023-03-25T02:53:48.350Z,99.90
2023-03-25T02:55:01.992Z,99.90
2023-03-25T02:56:11.926Z,99.90
2023-03-25T02:57:22.562Z,99.90
2023-03-25T02:58:27.815Z,99.90
2023-03-25T02:59:38.535Z,99.90
2023-03-25T03:00:44.126Z,99.90
2023-03-25T03:01:50.573Z,99.90
2023-03-25T03:03:00.161Z,99.90
2023-03-25T03:04:06.061Z,99.90
2023-03-25T03:05:26.605Z,99.90
2023-03-25T03:06:31.017Z,99.90
2023-03-25T03:07:39.830Z,99.90
2023-03-25T03:09:02.900Z,99.90
2023-03-25T03:10:20.590Z,99.90
2023-03-25T03:11:33.146Z,99.90
2023-03-25T03:12:53.424Z,99.90
2023-03-25T03:14:06.202Z,99.90
2023-03-25T03:15:25.674Z,99.90
2023-03-25T03:16:37.709Z,99.90
2023-03-25T03:17:53.158Z,99.90
2023-03-25T03:19:06.646Z,99.90
2023-03-25T03:20:20.355Z,99.90
2023-03-25T03:21:38.591Z,99.90
2023-03-25T03:22:52.878Z,99.90
2023-03-25T03:24:07.343Z,99.90
2023-03-25T03:25:23.190Z,99.90
2023-03-25T03:26:38.166Z,99.90
2023-03-25T03:27:50.320Z,99.90
2023-03-25T03:29:04.489Z,99.90
2023-03-25T03:30:14.717Z,99.90
2023-03-25T03:31:48.362Z,99.90
2023-03-25T03:33:02.608Z,99.90
2023-03-25T03:34:14.877Z,99.90
2023-03-25T03:35:24.124Z,99.90
2023-03-25T03:36:33.211Z,99.90
2023-03-25T03:37:47.142Z,99.90
2023-03-25T03:38:56.470Z,99.90
2023-03-25T03:40:03.327Z,99.90
2023-03-25T03:41:13.032Z,99.90
2023-03-25T03:42:23.890Z,99.90
2023-03-25T03:43:31.446Z,99.90
2023-03-25T03:44:40.444Z,99.90
2023-03-25T03:45:52.288Z,99.90
2023-03-25T03:47:04.209Z,99.90
2023-03-25T03:48:14.664Z,99.90
2023-03-25T03:49:23.464Z,99.90
2023-03-25T03:50:31.692Z,99.90
2023-03-25T03:51:40.029Z,99.90
2023-03-25T03:52:51.046Z,99.90
2023-03-25T03:54:07.778Z,99.90
2023-03-25T03:55:14.725Z,99.90
2023-03-25T03:56:24.683Z,99.90
2023-03-25T03:57:38.602Z,99.90
2023-03-25T03:58:45.324Z,99.90
2023-03-25T03:59:56.209Z,99.90
2023-03-25T04:01:11.154Z,99.90
2023-03-25T04:02:25.470Z,99.90
2023-03-25T04:03:39.063Z,99.90
2023-03-25T04:04:43.036Z,99.90
2023-03-25T04:05:55.690Z,99.90
2023-03-25T04:07:06.318Z,99.90
2023-03-25T04:08:19.292Z,99.90
2023-03-25T04:09:29.588Z,99.90
2023-03-25T04:10:45.796Z,99.90
2023-03-25T04:12:00.390Z,99.90
2023-03-25T04:13:14.216Z,99.90
2023-03-25T04:14:20.710Z,99.90
2023-03-25T04:15:24.097Z,99.90
2023-03-25T04:16:35.929Z,99.90
2023-03-25T04:17:40.357Z,99.90
2023-03-25T04:18:53.709Z,99.90
2023-03-25T04:19:56.583Z,99.90
2023-03-25T04:21:03.058Z,99.90
2023-03-25T04:22:08.273Z,99.90
2023-03-25T04:23:16.544Z,99.90
2023-03-25T04:24:20.660Z,99.90
2023-03-25T04:25:27.566Z,99.90
2023-03-25T04:26:38.494Z,99.90
2023-03-25T04:27:48.650Z,99.90
2023-03-25T04:28:53.789Z,99.90
2023-03-25T04:29:58.062Z,99.90
2023-03-25T04:31:07.613Z,99.90
2023-03-25T04:32:15.927Z,99.90
2023-03-25T04:33:22.377Z,99.90
2023-03-25T04:34:27.412Z,99.90
2023-03-25T04:35:33.216Z,99.90
2023-03-25T04:36:38.699Z,99.90
2023-03-25T04:37:42.197Z,99.90
2023-03-25T04:38:46.588Z,99.90
2023-03-25T04:39:49.975Z,99.90
2023-03-25T04:40:54.336Z,99.90
2023-03-25T04:41:57.310Z,99.90
2023-03-25T04:43:02.793Z,99.90
2023-03-25T04:44:08.024Z,99.90
2023-03-25T04:45:19.815Z,99.90
2023-03-25T04:46:26.091Z,99.90
2023-03-25T04:47:32.783Z,99.90
2023-03-25T04:48:41.701Z,99.90
2023-03-25T04:49:47.584Z,99.90
2023-03-25T04:50:53.580Z,99.90
2023-03-25T04:51:57.180Z,99.90
2023-03-25T04:53:01.547Z,99.90
2023-03-25T04:54:07.983Z,99.90
2023-03-25T04:55:17.875Z,99.90
2023-03-25T04:56:20.285Z,99.90
2023-03-25T04:57:24.002Z,99.90
2023-03-25T04:58:28.965Z,99.90
2023-03-25T04:59:32.849Z,99.90
2023-03-25T05:00:36.336Z,99.90
2023-03-25T05:01:46.467Z,99.90
2023-03-25T05:02:50.974Z,99.90
2023-03-25T05:03:54.723Z,99.90
2023-03-25T05:05:02.442Z,99.90
2023-03-25T05:06:07.868Z,99.90
2023-03-25T05:07:10.986Z,99.90
2023-03-25T05:08:14.874Z,99.90
2023-03-25T05:09:19.324Z,99.90
2023-03-25T05:10:25.264Z,99.90
2023-03-25T05:11:28.244Z,99.90
2023-03-25T05:12:36.679Z,99.90
2023-03-25T05:13:43.165Z,99.90
2023-03-25T05:14:47.105Z,99.90
2023-03-25T05:15:50.150Z,99.90
2023-03-25T05:16:56.016Z,99.90
2023-03-25T05:17:59.147Z,99.90
2023-03-25T05:19:04.081Z,99.90
2023-03-25T05:20:10.809Z,99.90
2023-03-25T05:21:15.528Z,99.90
2023-03-25T05:22:18.762Z,99.90
2023-03-25T05:23:22.299Z,99.90
2023-03-25T05:24:26.602Z,99.90
2023-03-25T05:25:34.087Z,99.90
2023-03-25T05:26:39.854Z,99.90
2023-03-25T05:27:45.043Z,99.90
2023-03-25T05:28:56.761Z,99.90
2023-03-25T05:30:02.497Z,99.90
2023-03-25T05:31:08.431Z,99.90
2023-03-25T05:32:13.760Z,99.90
2023-03-25T05:33:19.117Z,99.90
2023-03-25T05:34:21.788Z,99.90
2023-03-25T05:35:26.944Z,99.90
2023-03-25T05:36:29.811Z,99.90
2023-03-25T05:37:33.914Z,99.90
2023-03-25T05:38:39.375Z,99.90
2023-03-25T05:39:45.287Z,99.90
2023-03-25T05:40:49.211Z,99.90
2023-03-25T05:41:55.744Z,99.90
2023-03-25T05:42:58.945Z,99.90
2023-03-25T05:44:07.650Z,99.90
2023-03-25T05:45:11.317Z,99.90
2023-03-25T05:46:15.866Z,99.90
2023-03-25T05:47:21.975Z,99.90
2023-03-25T05:48:26.834Z,99.90
2023-03-25T05:49:30.006Z,99.90
2023-03-25T05:50:33.776Z,99.90
2023-03-25T05:51:38.075Z,99.90
2023-03-25T05:52:45.644Z,99.90
2023-03-25T05:53:50.155Z,99.90
2023-03-25T05:54:56.694Z,99.90
2023-03-25T05:56:01.431Z,99.90
2023-03-25T05:57:05.054Z,99.90
2023-03-25T05:58:07.929Z,99.90
2023-03-25T05:59:16.695Z,99.90
2023-03-25T06:00:23.639Z,99.90
2023-03-25T06:01:33.243Z,99.90
2023-03-25T06:02:38.965Z,99.90
2023-03-25T06:03:43.962Z,99.90
2023-03-25T06:04:50.764Z,99.90
2023-03-25T06:05:57.976Z,99.90
2023-03-25T06:07:01.837Z,99.90
2023-03-25T06:08:05.774Z,99.90
2023-03-25T06:09:08.683Z,99.90
2023-03-25T06:10:17.636Z,99.90
2023-03-25T06:11:20.852Z,99.90
2023-03-25T06:12:30.548Z,99.90
2023-03-25T06:13:34.031Z,99.90
2023-03-25T06:14:39.047Z,99.90
2023-03-25T06:15:41.986Z,99.90
2023-03-25T06:16:47.064Z,99.90
2023-03-25T06:17:50.698Z,99.90
2023-03-25T06:18:56.505Z,99.90
2023-03-25T06:20:02.570Z,99.90
2023-03-25T06:21:08.729Z,99.90
2023-03-25T06:22:13.704Z,99.90
2023-03-25T06:23:16.497Z,99.90
2023-03-25T06:24:20.119Z,99.90
2023-03-25T06:25:23.617Z,99.90
2023-03-25T06:26:27.756Z,99.90
2023-03-25T06:27:30.156Z,99.90
2023-03-25T06:28:37.256Z,99.90
2023-03-25T06:29:44.309Z,99.90
2023-03-25T06:30:48.863Z,99.90
2023-03-25T06:31:54.548Z,99.90
2023-03-25T06:32:59.487Z,99.90
2023-03-25T06:34:04.277Z,99.90
2023-03-25T06:35:12.686Z,99.90
2023-03-25T06:36:19.172Z,99.90
2023-03-25T06:37:26.148Z,99.90
2023-03-25T06:38:30.307Z,99.90
2023-03-25T06:39:42.361Z,99.90
2023-03-25T06:40:53.190Z,99.90
2023-03-25T06:41:57.137Z,99.90
2023-03-25T06:43:08.321Z,99.90
2023-03-25T06:44:46.662Z,99.90
2023-03-25T06:46:12.450Z,99.90
2023-03-25T06:47:46.521Z,99.90
2023-03-25T06:48:49.174Z,99.90
2023-03-25T06:49:53.617Z,99.90
2023-03-25T06:50:56.102Z,99.90
2023-03-25T06:52:02.283Z,99.90
2023-03-25T06:53:05.108Z,99.90
2023-03-25T06:54:09.045Z,99.90
2023-03-25T06:55:12.043Z,99.90
2023-03-25T06:56:18.453Z,99.90
2023-03-25T06:57:21.329Z,99.90
2023-03-25T06:58:25.324Z,99.90
2023-03-25T06:59:28.126Z,99.90
2023-03-25T07:00:33.806Z,99.90
2023-03-25T07:01:36.986Z,99.90
2023-03-25T07:02:41.479Z,99.90
2023-03-25T07:03:44.826Z,99.90
2023-03-25T07:04:50.745Z,99.90
2023-03-25T07:05:53.660Z,99.90
2023-03-25T07:06:59.674Z,99.90
2023-03-25T07:08:06.472Z,99.90
2023-03-25T07:09:10.893Z,99.90
2023-03-25T07:10:15.150Z,99.90
2023-03-25T07:11:27.437Z,99.90
2023-03-25T07:12:30.519Z,99.90
2023-03-25T07:13:34.288Z,99.90
2023-03-25T07:14:41.071Z,99.90
2023-03-25T07:15:46.385Z,99.90
2023-03-25T07:16:49.028Z,99.90
2023-03-25T07:17:55.738Z,99.90
2023-03-25T07:19:00.059Z,99.90
2023-03-25T07:20:04.050Z,99.90
2023-03-25T07:21:07.479Z,99.90
2023-03-25T07:22:11.120Z,99.90
2023-03-25T07:23:13.476Z,99.90
2023-03-25T07:24:17.308Z,99.90
2023-03-25T07:25:19.746Z,99.90
2023-03-25T07:26:25.330Z,99.90
2023-03-25T07:27:28.090Z,99.90
2023-03-25T07:28:40.826Z,99.90
2023-03-25T07:29:43.667Z,99.90
2023-03-25T07:30:48.599Z,99.90
2023-03-25T07:31:52.321Z,99.90
2023-03-25T07:32:55.535Z,99.90
2023-03-25T07:34:00.009Z,99.90
2023-03-25T07:35:10.450Z,99.90
2023-03-25T07:36:17.064Z,99.90
2023-03-25T07:37:20.783Z,99.90
2023-03-25T07:38:29.217Z,99.90
2023-03-25T07:39:34.937Z,99.90
2023-03-25T07:40:38.250Z,99.90
2023-03-25T07:41:43.086Z,99.90
2023-03-25T07:42:55.291Z,99.90
2023-03-25T07:44:01.009Z,99.90
2023-03-25T07:45:08.361Z,99.90
2023-03-25T07:46:14.718Z,99.80
2023-03-25T07:47:17.225Z,99.80
2023-03-25T07:48:22.748Z,99.80
2023-03-25T07:49:25.528Z,99.60
2023-03-25T07:50:31.447Z,99.40
2023-03-25T07:51:36.045Z,99.80
2023-03-25T07:52:41.030Z,99.50
2023-03-25T07:53:45.325Z,99.00
2023-03-25T07:54:48.983Z,99.00
2023-03-25T07:55:51.885Z,99.00
2023-03-25T07:56:56.211Z,99.10
2023-03-25T07:58:06.406Z,99.50
2023-03-25T07:59:09.685Z,99.10
2023-03-25T08:00:14.754Z,98.80
2023-03-25T08:01:21.639Z,99.00
2023-03-25T08:02:26.272Z,99.10
2023-03-25T08:03:29.211Z,98.60
2023-03-25T08:04:33.167Z,98.30
2023-03-25T08:05:35.825Z,98.10
2023-03-25T08:06:39.574Z,98.10
2023-03-25T08:07:44.848Z,98.00
2023-03-25T08:08:48.331Z,98.40
2023-03-25T08:09:54.084Z,98.20
2023-03-25T08:10:58.285Z,98.00
2023-03-25T08:12:03.411Z,97.90
2023-03-25T08:13:07.434Z,99.90
2023-03-25T08:14:12.909Z,99.90
2023-03-25T08:15:18.073Z,99.90
2023-03-25T08:16:22.299Z,99.90
2023-03-25T08:17:26.147Z,99.90
2023-03-25T08:18:29.031Z,99.80
2023-03-25T08:19:32.543Z,98.10
2023-03-25T08:20:40.044Z,98.00
2023-03-25T08:21:44.012Z,97.00
2023-03-25T08:22:47.302Z,98.60
2023-03-25T08:23:58.357Z,97.00
2023-03-25T08:25:00.944Z,96.40
2023-03-25T08:26:05.832Z,96.60
2023-03-25T08:27:15.235Z,95.70
2023-03-25T08:28:23.340Z,93.90
2023-03-25T08:29:27.849Z,93.80
2023-03-25T08:30:30.766Z,92.30
2023-03-25T08:31:42.351Z,92.30
2023-03-25T08:32:46.364Z,92.20
2023-03-25T08:33:50.043Z,90.50
2023-03-25T08:34:52.801Z,90.70
2023-03-25T08:35:58.986Z,89.90
2023-03-25T08:37:02.069Z,90.70
2023-03-25T08:38:06.831Z,91.20
2023-03-25T08:39:12.064Z,89.40
2023-03-25T08:40:17.187Z,87.50
2023-03-25T08:41:21.282Z,86.00
2023-03-25T08:42:23.955Z,86.20
2023-03-25T08:43:30.411Z,84.30
2023-03-25T08:44:33.176Z,83.80
2023-03-25T08:45:39.257Z,82.20
2023-03-25T08:46:46.504Z,80.20
2023-03-25T08:47:49.032Z,80.00
2023-03-25T08:48:53.773Z,77.10
2023-03-25T08:49:56.299Z,75.20
2023-03-25T08:51:01.253Z,76.80
2023-03-25T08:52:08.136Z,76.80
2023-03-25T08:53:19.722Z,74.70
2023-03-25T08:54:24.968Z,75.40
2023-03-25T08:55:28.581Z,70.30
2023-03-25T08:56:32.470Z,71.20
2023-03-25T08:57:37.905Z,72.80
2023-03-25T08:58:41.199Z,71.50
2023-03-25T08:59:45.179Z,71.60
2023-03-25T09:00:47.803Z,73.30
2023-03-25T09:01:55.266Z,74.00
2023-03-25T09:03:02.463Z,76.20
2023-03-25T09:04:06.088Z,74.20
2023-03-25T09:05:11.060Z,73.40
2023-03-25T09:06:14.099Z,75.20
2023-03-25T09:07:19.874Z,76.00
2023-03-25T09:08:26.970Z,75.70
2023-03-25T09:09:30.867Z,74.70
2023-03-25T09:10:36.614Z,70.90
2023-03-25T09:11:41.431Z,72.30
2023-03-25T09:12:46.290Z,73.80
2023-03-25T09:13:49.389Z,73.70
2023-03-25T09:14:54.620Z,73.20
2023-03-25T09:16:01.755Z,74.00
2023-03-25T09:17:06.431Z,74.80
2023-03-25T09:18:10.413Z,73.50
2023-03-25T09:19:17.430Z,71.00
2023-03-25T09:20:21.261Z,69.80
2023-03-25T09:21:23.975Z,72.30
2023-03-25T09:22:27.939Z,71.60
2023-03-25T09:23:34.599Z,73.20
2023-03-25T09:24:39.243Z,72.90
2023-03-25T09:25:46.418Z,71.10
2023-03-25T09:26:51.521Z,71.10
2023-03-25T09:27:55.556Z,72.40
2023-03-25T09:29:02.143Z,74.40
2023-03-25T09:30:06.292Z,73.10
2023-03-25T09:31:09.637Z,70.60
2023-03-25T09:32:15.133Z,69.20
2023-03-25T09:33:19.409Z,72.20
2023-03-25T09:34:23.491Z,70.70
2023-03-25T09:35:27.845Z,68.80
2023-03-25T09:36:34.806Z,70.30
2023-03-25T09:37:41.044Z,72.50
2023-03-25T09:38:44.756Z,72.80
2023-03-25T09:39:54.245Z,71.10
2023-03-25T09:40:57.769Z,73.20
2023-03-25T09:42:27.943Z,72.80
2023-03-25T09:43:47.233Z,73.10
2023-03-25T09:45:11.153Z,75.30
2023-03-25T09:46:16.086Z,73.00
2023-03-25T09:47:22.658Z,71.90
2023-03-25T09:48:35.794Z,70.80
2023-03-25T09:49:45.124Z,73.30
2023-03-25T09:50:51.378Z,73.10
2023-03-25T09:51:58.591Z,72.50
2023-03-25T09:53:06.471Z,74.80
2023-03-25T09:54:25.158Z,75.80
2023-03-25T09:55:35.297Z,72.70
2023-03-25T09:56:42.736Z,75.00
2023-03-25T09:57:50.048Z,76.00
2023-03-25T09:58:57.886Z,75.20
2023-03-25T10:00:06.949Z,73.90
2023-03-25T10:01:28.295Z,75.10
2023-03-25T10:02:41.791Z,76.50
2023-03-25T10:04:06.731Z,77.40
2023-03-25T10:05:38.061Z,76.30
2023-03-25T10:06:55.952Z,79.40
2023-03-25T10:08:16.870Z,78.80
2023-03-25T10:09:39.835Z,76.20
2023-03-25T10:10:56.542Z,77.50
2023-03-25T10:12:09.587Z,73.80
2023-03-25T10:13:26.762Z,72.00
2023-03-25T10:14:38.673Z,72.30
2023-03-25T10:15:53.879Z,75.00
2023-03-25T10:17:13.025Z,72.70
2023-03-25T10:18:43.635Z,74.00
2023-03-25T10:19:59.338Z,74.10
2023-03-25T10:21:13.119Z,75.10
2023-03-25T10:22:26.836Z,74.20
2023-03-25T10:23:43.438Z,73.80
2023-03-25T10:24:52.382Z,74.00
2023-03-25T10:26:02.017Z,73.20
2023-03-25T10:27:11.390Z,71.10
2023-03-25T10:28:21.474Z,71.90
2023-03-25T10:29:34.666Z,71.20
2023-03-25T10:30:47.808Z,71.20
2023-03-25T10:31:54.758Z,71.70
2023-03-25T10:33:01.683Z,69.40
2023-03-25T10:34:12.220Z,71.80
2023-03-25T10:35:21.491Z,71.40
2023-03-25T10:36:37.555Z,69.90
2023-03-25T10:37:47.785Z,72.20
2023-03-25T10:38:56.138Z,69.70
2023-03-25T10:40:21.979Z,64.00
2023-03-25T10:41:28.332Z,67.40
2023-03-25T10:42:40.070Z,66.60
2023-03-25T10:43:43.747Z,67.40
2023-03-25T10:44:51.200Z,64.60
2023-03-25T10:46:00.208Z,67.00
2023-03-25T10:47:13.368Z,68.50
2023-03-25T10:48:22.826Z,66.50
2023-03-25T10:49:32.710Z,66.20
2023-03-25T10:50:35.987Z,65.90
2023-03-25T10:51:41.252Z,66.00
2023-03-25T10:52:44.547Z,65.40
2023-03-25T10:53:53.218Z,64.50
2023-03-25T10:54:58.277Z,63.70
2023-03-25T10:56:07.567Z,64.50
2023-03-25T10:57:17.216Z,64.20
2023-03-25T10:58:20.116Z,65.50
2023-03-25T10:59:30.772Z,63.20
2023-03-25T11:00:35.795Z,64.60
2023-03-25T11:01:42.094Z,62.90
2023-03-25T11:02:46.021Z,63.00
2023-03-25T11:03:53.715Z,62.20
2023-03-25T11:05:01.971Z,62.70
2023-03-25T11:06:07.040Z,63.50
2023-03-25T11:07:19.754Z,63.10
2023-03-25T11:08:25.481Z,63.60
2023-03-25T11:09:30.739Z,64.20
2023-03-25T11:10:35.244Z,62.70
2023-03-25T11:11:38.061Z,62.40
2023-03-25T11:12:45.244Z,63.10
2023-03-25T11:14:00.142Z,63.00
2023-03-25T11:15:04.606Z,62.20
2023-03-25T11:16:08.423Z,63.20
2023-03-25T11:17:18.161Z,63.20
2023-03-25T11:18:24.868Z,64.30
2023-03-25T11:19:32.839Z,64.20
2023-03-25T11:20:41.308Z,64.40
2023-03-25T11:21:48.714Z,62.60
2023-03-25T11:22:55.938Z,62.90
2023-03-25T11:24:01.541Z,63.00
2023-03-25T11:25:14.104Z,63.10
2023-03-25T11:26:21.735Z,64.40
2023-03-25T11:27:31.453Z,63.60
2023-03-25T11:28:44.377Z,63.50
2023-03-25T11:29:55.752Z,62.70
2023-03-25T11:31:22.337Z,63.00
2023-03-25T11:32:36.422Z,63.80
2023-03-25T11:33:42.999Z,64.40
2023-03-25T11:34:51.341Z,64.40
2023-03-25T11:35:55.560Z,64.10
2023-03-25T11:37:05.119Z,62.80
2023-03-25T11:38:16.001Z,61.70
2023-03-25T11:46:10.291Z,59.80
2023-03-25T11:47:22.866Z,59.00
2023-03-25T11:48:40.552Z,58.40
2023-03-25T11:49:47.186Z,60.00
2023-03-25T11:50:59.338Z,60.30
2023-03-25T11:52:09.017Z,62.40
2023-03-25T11:53:17.471Z,62.80
2023-03-25T11:54:22.177Z,64.50
2023-03-25T11:55:28.239Z,62.80
2023-03-25T11:57:43.057Z,62.50
2023-03-25T12:00:01.514Z,63.10
2023-03-25T12:01:27.882Z,63.70
2023-03-25T12:02:42.511Z,61.40
2023-03-25T12:03:46.117Z,65.30
2023-03-25T12:05:02.260Z,68.20
2023-03-25T12:06:16.994Z,67.30
2023-03-25T12:07:25.864Z,67.60
2023-03-25T12:08:42.796Z,67.40
2023-03-25T12:09:56.137Z,68.00
2023-03-25T12:12:32.739Z,71.40
2023-03-25T12:13:51.952Z,72.00
2023-03-25T12:15:06.933Z,65.70
2023-03-25T12:16:26.165Z,65.40
2023-03-25T12:17:44.660Z,64.80
2023-03-25T12:19:14.173Z,64.80
2023-03-25T12:20:31.163Z,65.70
2023-03-25T12:22:03.667Z,64.50
2023-03-25T12:23:28.272Z,65.10
2023-03-25T12:24:58.692Z,67.80
2023-03-25T12:26:18.054Z,65.10
2023-03-25T12:27:38.804Z,62.90
2023-03-25T12:29:12.991Z,64.80
2023-03-25T12:30:37.862Z,65.30
2023-03-25T12:31:57.098Z,65.60
2023-03-25T12:33:16.660Z,66.00
2023-03-25T12:34:39.708Z,64.90
2023-03-25T12:35:54.673Z,63.90
2023-03-25T12:37:08.978Z,67.40
2023-03-25T12:38:39.063Z,67.90
2023-03-25T12:40:02.006Z,66.30
2023-03-25T12:41:20.447Z,66.20
2023-03-25T12:42:43.284Z,66.80
2023-03-25T12:44:00.000Z,67.40
2023-03-25T12:45:34.699Z,74.80
2023-03-25T12:47:18.186Z,73.80
2023-03-25T12:48:48.000Z,67.30
2023-03-25T12:50:34.218Z,65.10
2023-03-25T12:51:52.619Z,68.90
2023-03-25T12:53:06.559Z,68.70
2023-03-25T12:54:27.978Z,68.80
2023-03-25T12:55:54.317Z,70.40
2023-03-25T12:57:09.337Z,68.80
2023-03-25T12:58:43.762Z,70.40
2023-03-25T13:00:08.326Z,70.30
2023-03-25T13:01:27.150Z,70.70
2023-03-25T13:03:03.469Z,70.00
2023-03-25T13:04:31.263Z,70.50
2023-03-25T13:05:44.154Z,71.50
2023-03-25T13:07:00.417Z,70.60
2023-03-25T13:08:16.335Z,71.10
2023-03-25T13:09:27.202Z,78.90
2023-03-25T13:10:35.047Z,74.80
2023-03-25T13:11:49.849Z,78.40
2023-03-25T13:12:59.223Z,78.50
2023-03-25T13:14:10.725Z,79.80
2023-03-25T13:15:27.457Z,82.40
2023-03-25T13:16:40.231Z,82.50
2023-03-25T13:17:52.150Z,83.70
2023-03-25T13:19:02.372Z,85.00
2023-03-25T13:20:11.626Z,85.90
2023-03-25T13:21:21.953Z,87.40
2023-03-25T13:22:32.801Z,88.50
2023-03-25T13:24:55.648Z,86.80
2023-03-25T13:26:02.869Z,90.00
2023-03-25T13:27:10.127Z,90.80
2023-03-25T13:29:31.925Z,91.40
2023-03-25T13:30:41.991Z,91.70
2023-03-25T13:31:48.212Z,91.70
2023-03-25T13:33:02.146Z,92.00
2023-03-25T13:34:19.362Z,92.50
2023-03-25T13:35:44.304Z,92.10
2023-03-25T13:37:03.486Z,92.90
2023-03-25T13:38:15.420Z,93.50
2023-03-25T13:39:27.361Z,93.50
2023-03-25T13:40:39.312Z,93.30
2023-03-25T13:41:46.144Z,93.70
2023-03-25T13:42:55.765Z,94.50
2023-03-25T13:44:09.247Z,93.70
2023-03-25T13:45:18.805Z,93.60
2023-03-25T13:46:28.700Z,94.00
2023-03-25T13:47:42.013Z,94.60
2023-03-25T13:48:54.518Z,94.10
2023-03-25T13:50:10.418Z,95.00
2023-03-25T13:51:13.919Z,94.60
2023-03-25T13:52:17.215Z,94.40
2023-03-25T13:53:29.014Z,95.80
2023-03-25T13:54:38.045Z,95.60
2023-03-25T13:55:48.987Z,93.90
2023-03-25T13:57:26.689Z,94.30
2023-03-25T13:58:48.474Z,93.90
2023-03-25T14:00:25.086Z,94.30
2023-03-25T14:02:13.036Z,94.90
2023-03-25T14:03:47.896Z,93.90
2023-03-25T14:05:31.681Z,93.70
2023-03-25T14:07:21.332Z,93.90
2023-03-25T14:09:12.190Z,93.30
2023-03-25T14:10:45.692Z,92.70
2023-03-25T14:11:58.285Z,91.60
2023-03-25T14:13:09.276Z,93.20
2023-03-25T14:14:18.627Z,93.20
2023-03-25T14:15:27.531Z,92.90
2023-03-25T14:16:37.315Z,93.00
2023-03-25T14:17:50.398Z,92.90
2023-03-25T14:19:00.165Z,92.70
2023-03-25T14:20:14.889Z,92.10
2023-03-25T14:21:32.176Z,92.60
2023-03-25T14:22:44.262Z,93.10
2023-03-25T14:24:06.894Z,93.00
2023-03-25T14:25:22.390Z,92.70
2023-03-25T14:26:27.978Z,92.60
2023-03-25T14:27:34.715Z,91.20
2023-03-25T14:28:41.078Z,90.70
2023-03-25T14:29:48.641Z,92.10
2023-03-25T14:31:07.586Z,90.90
2023-03-25T14:32:32.741Z,91.30
2023-03-25T14:34:28.704Z,91.20
2023-03-25T14:35:53.473Z,90.10
2023-03-25T14:37:31.160Z,89.80
2023-03-25T14:38:58.620Z,90.50
2023-03-25T14:40:24.278Z,89.40
2023-03-25T14:42:01.886Z,90.00
2023-03-25T14:43:20.731Z,90.00
2023-03-25T14:44:28.835Z,86.60
2023-03-25T14:45:51.900Z,88.30
2023-03-25T14:47:03.007Z,85.70
2023-03-25T14:48:22.999Z,86.50
2023-03-25T14:49:54.660Z,85.90
2023-03-25T14:51:41.586Z,87.00
2023-03-25T14:52:50.232Z,90.50
2023-03-25T14:53:56.522Z,89.50
2023-03-25T14:55:08.169Z,90.00
2023-03-25T14:56:20.365Z,90.00
2023-03-25T14:57:28.878Z,89.20
2023-03-25T14:59:44.101Z,86.60
2023-03-25T15:00:55.256Z,85.00
2023-03-25T15:02:07.186Z,86.70
2023-03-25T15:03:14.659Z,85.00
2023-03-25T15:04:30.285Z,85.70
2023-03-25T15:05:36.040Z,88.90
2023-03-25T15:06:40.782Z,87.20
2023-03-25T15:07:49.993Z,87.20
2023-03-25T15:08:57.143Z,87.80
2023-03-25T15:10:03.716Z,87.70
2023-03-25T15:11:12.199Z,90.00
2023-03-25T15:12:20.437Z,90.00
2023-03-25T15:13:29.348Z,90.60
2023-03-25T15:14:40.847Z,91.00